Time;durP1;ratioP1;P1;durP2;ratioP2;P2;SDS_P1;SDS_P2;PMS_P1;PMS_P2;Temp;Humidity;BMP_temperature;BMP_pressure;BME280_temperature;BME280_humidity;BME280_pressure;Samples;Min_cycle;Max_cycle;Signal;HPM_P1;HPM_P2
2022/10/03 00:02:04;;;;;;;2.03;1.38;;;;;;;11.86;75.22;99218.94;5146770;27;20055;-65
2022/10/03 00:04:46;;;;;;;3.13;1.30;;;;;;;12.29;75.68;99272.09;5147361;27;20108;-67
2022/10/03 00:07:30;;;;;;;3.95;1.40;;;;;;;12.28;75.36;99278.34;5146703;27;20054;-65
2022/10/03 00:10:09;;;;;;;2.10;1.33;;;;;;;12.30;75.33;99281.78;5146956;27;20319;-65
2022/10/03 00:12:47;;;;;;;4.35;1.67;;;;;;;12.30;75.70;99279.13;5147011;27;20108;-65
2022/10/03 00:15:20;;;;;;;5.25;1.70;;;;;;;12.33;75.80;99287.75;5147070;27;20055;-65
2022/10/03 00:18:01;;;;;;;2.13;1.45;;;;;;;12.05;75.41;99251.41;5146973;27;20104;-65
2022/10/03 00:20:46;;;;;;;3.00;1.45;;;;;;;12.26;75.49;99278.44;5146193;27;20245;-66
2022/10/03 00:23:22;;;;;;;3.38;1.50;;;;;;;12.21;75.54;99283.19;5146666;27;20085;-67
2022/10/03 00:25:57;;;;;;;2.20;1.40;;;;;;;12.19;75.57;99282.44;5146449;27;20111;-66
2022/10/03 00:28:49;;;;;;;2.28;1.60;;;;;;;12.15;75.47;99291.53;5146797;27;20162;-67
2022/10/03 00:31:21;;;;;;;2.30;1.60;;;;;;;12.10;76.08;99288.31;5146351;27;20077;-67
2022/10/03 00:34:03;;;;;;;2.20;1.35;;;;;;;12.10;75.52;99285.66;5146626;27;20051;-66
2022/10/03 00:36:42;;;;;;;2.38;1.30;;;;;;;12.11;75.89;99290.00;5146043;27;20055;-66
2022/10/03 00:39:34;;;;;;;3.13;1.50;;;;;;;11.95;75.50;99257.34;5146242;27;20063;-65
2022/10/03 00:42:45;;;;;;;3.92;1.60;;;;;;;12.09;75.32;99289.25;5145914;27;20055;-67
2022/10/03 00:45:39;;;;;;;3.17;1.50;;;;;;;12.10;75.30;99278.53;5087015;27;20055;-65
2022/10/03 00:48:28;;;;;;;3.20;2.20;;;;;;;12.16;75.51;99285.25;5146027;27;20051;-66
2022/10/03 00:51:09;;;;;;;3.33;2.08;;;;;;;12.14;75.51;99287.16;5146423;27;20062;-67
2022/10/03 00:53:53;;;;;;;3.60;2.03;;;;;;;12.17;75.45;99287.00;5145988;27;20108;-68
2022/10/03 00:56:35;;;;;;;2.53;1.63;;;;;;;12.17;75.43;99281.69;5146144;27;20054;-68
2022/10/03 00:59:18;;;;;;;2.35;1.52;;;;;;;12.17;75.24;99281.69;5146015;27;20059;-66
2022/10/03 01:01:47;;;;;;;2.45;1.60;;;;;;;11.22;75.48;99146.81;5145879;28;20055;-66
2022/10/03 01:04:39;;;;;;;3.58;1.80;;;;;;;12.13;75.17;99286.31;5146225;28;20310;-67
2022/10/03 01:07:24;;;;;;;2.92;1.50;;;;;;;12.10;75.03;99290.97;5146023;28;20358;-67
2022/10/03 01:09:59;;;;;;;;;;;;;;;11.93;75.03;99291.97;5146828;28;20364;-66
2022/10/03 01:12:53;;;;;;;2.80;1.75;;;;;;;12.03;75.07;99297.59;5146528;27;19916;-67
2022/10/03 01:15:29;;;;;;;3.67;1.65;;;;;;;12.01;74.85;99287.06;5146421;27;20055;-65
2022/10/03 01:18:13;;;;;;;2.30;1.50;;;;;;;12.16;74.76;99294.13;5146137;27;20383;-66
2022/10/03 01:20:52;;;;;;;2.55;1.48;;;;;;;12.11;74.74;99290.88;5146408;27;20260;-66
2022/10/03 01:24:02;;;;;;;3.58;1.45;;;;;;;12.09;74.02;99298.06;5145228;28;20051;-66
2022/10/03 01:26:54;;;;;;;2.25;1.60;;;;;;;11.46;73.98;99180.75;5125051;27;20059;-65
2022/10/03 01:32:24;;;;;;;2.45;1.40;;;;;;;11.92;74.44;99268.16;5146437;28;20097;-65
2022/10/03 01:35:00;;;;;;;3.78;1.67;;;;;;;12.08;73.96;99295.50;5146176;27;20217;-66
2022/10/03 01:37:38;;;;;;;2.70;1.70;;;;;;;11.87;74.21;99266.66;5145857;27;20055;-65
2022/10/03 01:40:17;;;;;;;4.20;1.95;;;;;;;12.10;74.04;99293.63;5146727;27;20055;-65
2022/10/03 01:42:57;;;;;;;3.22;1.50;;;;;;;12.10;73.85;99297.13;5146060;27;20158;-65
2022/10/03 01:45:36;;;;;;;2.60;1.48;;;;;;;12.09;73.57;99300.72;5145884;27;20119;-66
2022/10/03 01:48:11;;;;;;;2.50;1.52;;;;;;;12.10;73.70;99297.13;5147571;27;20055;-67
2022/10/03 01:50:49;;;;;;;2.60;1.77;;;;;;;12.10;73.52;99293.63;5149641;27;20092;-65
2022/10/03 01:53:24;;;;;;;3.47;1.88;;;;;;;12.07;73.84;99294.66;5149472;27;20315;-65
2022/10/03 01:55:59;;;;;;;3.15;2.00;;;;;;;12.04;73.25;99300.16;5149916;27;20062;-65
2022/10/03 01:58:37;;;;;;;3.70;1.52;;;;;;;12.08;73.67;99300.81;5149705;27;20100;-66
2022/10/03 02:01:11;;;;;;;3.20;1.75;;;;;;;12.08;73.50;99299.03;5149358;27;20047;-68
2022/10/03 02:03:46;;;;;;;2.90;1.95;;;;;;;12.11;73.17;99304.16;5149698;27;20054;-65
2022/10/03 02:06:19;;;;;;;;;;;;;;;11.91;73.00;99301.84;5149933;27;20051;-64
2022/10/03 02:08:55;;;;;;;5.25;2.47;;;;;;;12.02;73.45;99310.03;5149483;27;20220;-65
2022/10/03 02:11:32;;;;;;;3.15;1.88;;;;;;;12.04;73.01;99313.44;5149604;27;20364;-65
2022/10/03 02:14:14;;;;;;;3.60;1.90;;;;;;;12.06;72.77;99316.84;5149189;27;20055;-65
2022/10/03 02:16:51;;;;;;;3.42;1.88;;;;;;;12.03;73.33;99317.03;5149203;27;20055;-65
2022/10/03 02:19:24;;;;;;;3.30;1.73;;;;;;;12.04;72.86;99318.75;5149415;27;20083;-66
2022/10/03 02:21:53;;;;;;;3.28;2.10;;;;;;;12.06;73.10;99321.31;5149406;27;20267;-67
2022/10/03 02:24:43;;;;;;;4.20;1.90;;;;;;;12.08;71.93;99314.09;5149032;27;20192;-67
2022/10/03 02:27:43;;;;;;;3.72;1.90;;;;;;;12.11;72.24;99319.22;5149041;27;20108;-67
2022/10/03 02:30:21;;;;;;;3.30;1.92;;;;;;;12.11;72.24;99321.88;5149078;27;20253;-68
2022/10/03 02:33:36;;;;;;;3.15;1.70;;;;;;;12.07;71.95;99320.38;5148814;27;20051;-67
2022/10/03 02:36:30;;;;;;;3.70;2.10;;;;;;;12.04;71.42;99318.75;5148963;27;20099;-67
2022/10/03 02:39:39;;;;;;;3.60;1.90;;;;;;;11.86;71.52;99295.94;5148638;27;20436;-67
2022/10/03 02:42:31;;;;;;;3.05;1.75;;;;;;;11.89;71.94;99309.03;5148611;27;20311;-67
2022/10/03 02:45:27;;;;;;;4.20;1.80;;;;;;;12.05;71.35;99343.53;5148436;27;20107;-68
2022/10/03 02:48:37;;;;;;;3.70;1.60;;;;;;;12.03;71.15;99342.75;5148918;27;20054;-68
2022/10/03 02:51:46;;;;;;;2.92;1.90;;;;;;;12.04;71.25;99334.69;5148891;27;20092;-67
2022/10/03 02:54:55;;;;;;;3.25;2.05;;;;;;;12.02;71.02;99339.25;5083771;27;20363;-67
2022/10/03 02:58:07;;;;;;;3.60;1.77;;;;;;;11.95;71.08;99348.50;5148766;27;20191;-67
2022/10/03 03:00:58;;;;;;;3.97;1.90;;;;;;;11.96;70.95;99342.25;5148219;27;20054;-67
2022/10/03 03:03:45;;;;;;;2.97;2.20;;;;;;;12.00;70.99;99342.91;5148502;27;20059;-67
2022/10/03 03:06:57;;;;;;;4.70;2.45;;;;;;;12.00;70.66;99354.44;5148237;27;20047;-68
2022/10/03 03:09:57;;;;;;;3.03;2.10;;;;;;;11.94;70.70;99344.13;5147986;27;20119;-68
2022/10/03 03:13:07;;;;;;;3.33;1.70;;;;;;;11.92;70.86;99348.69;5148404;27;20245;-67
2022/10/03 03:16:04;;;;;;;4.60;2.08;;;;;;;11.96;70.64;99359.97;5144611;27;20076;-68
2022/10/03 03:18:36;;;;;;;4.50;1.98;;;;;;;11.94;70.48;99367.19;5148300;27;20188;-68
2022/10/03 03:21:21;;;;;;;3.78;2.10;;;;;;;11.97;70.12;99356.38;5148170;27;20063;-67
2022/10/03 03:24:17;;;;;;;4.38;2.10;;;;;;;11.97;70.52;99359.88;5147940;27;20067;-67
2022/10/03 03:27:02;;;;;;;3.25;1.90;;;;;;;11.94;70.38;99369.84;5147702;27;20063;-67
2022/10/03 03:29:42;;;;;;;3.30;1.92;;;;;;;11.96;69.98;99358.19;5147988;27;20123;-67
2022/10/03 03:32:20;;;;;;;4.60;1.92;;;;;;;11.94;70.66;99361.88;5147755;27;20063;-68
2022/10/03 03:34:58;;;;;;;2.97;2.10;;;;;;;11.95;70.88;99368.91;5147980;27;20096;-67
2022/10/03 03:37:34;;;;;;;4.82;2.00;;;;;;;11.95;70.27;99368.91;5147813;27;20170;-67
2022/10/03 03:40:13;;;;;;;4.50;1.85;;;;;;;11.95;70.51;99356.47;5147573;27;20055;-67
2022/10/03 03:43:03;;;;;;;5.15;2.20;;;;;;;11.93;69.98;99358.38;5147746;27;20100;-67
2022/10/03 03:45:49;;;;;;;4.03;1.88;;;;;;;11.92;69.70;99364.63;5147707;27;20063;-67
2022/10/03 03:48:42;;;;;;;5.70;2.47;;;;;;;11.90;70.17;99358.56;5147672;27;20054;-67
2022/10/03 03:51:25;;;;;;;2.88;1.95;;;;;;;11.91;70.03;99370.88;5147653;27;20122;-67
2022/10/03 03:54:22;;;;;;;4.63;2.00;;;;;;;11.89;70.63;99365.66;5147041;27;20059;-67
2022/10/03 03:57:00;;;;;;;3.55;2.10;;;;;;;11.89;70.79;99376.28;5126510;27;20371;-68
2022/10/03 03:59:44;;;;;;;6.55;2.30;;;;;;;11.88;70.26;99387.84;5147076;27;20099;-67
2022/10/03 04:02:30;;;;;;;4.93;2.20;;;;;;;11.88;69.94;99382.53;5146994;27;20059;-67
2022/10/03 04:05:13;;;;;;;3.33;1.83;;;;;;;11.85;70.38;99389.84;5146926;27;20096;-67
2022/10/03 04:07:52;;;;;;;3.38;2.22;;;;;;;11.83;70.15;99391.72;5146917;27;20249;-67
2022/10/03 04:10:31;;;;;;;5.43;2.47;;;;;;;11.90;70.28;99393.06;5146617;27;20051;-67
2022/10/03 04:13:20;;;;;;;4.53;2.47;;;;;;;11.85;69.95;99384.53;5146662;27;20062;-67
2022/10/03 04:15:59;;;;;;;8.45;2.20;;;;;;;11.84;70.89;99399.59;5146836;27;20253;-67
2022/10/03 04:18:59;;;;;;;3.10;2.08;;;;;;;11.90;70.18;99395.72;5146894;27;20055;-67
2022/10/03 04:21:49;;;;;;;4.32;2.28;;;;;;;11.87;70.12;99390.59;5146531;27;20108;-68
2022/10/03 04:24:35;;;;;;;4.40;2.53;;;;;;;11.80;70.31;99386.59;5146892;27;20307;-67
2022/10/03 04:27:20;;;;;;;3.97;2.97;;;;;;;11.82;70.05;99387.38;5146703;27;20092;-67
2022/10/03 04:29:59;;;;;;;4.28;2.13;;;;;;;11.81;70.31;99380.34;5146536;27;20050;-67
2022/10/03 04:32:56;;;;;;;3.33;1.92;;;;;;;11.84;69.78;99389.00;5146869;27;20055;-67
2022/10/03 04:35:42;;;;;;;4.18;2.78;;;;;;;11.75;69.37;99396.66;5146518;27;20115;-67
2022/10/03 04:38:20;;;;;;;6.22;2.63;;;;;;;11.84;70.04;99385.47;5146322;27;20055;-67
2022/10/03 04:40:54;;;;;;;4.70;2.65;;;;;;;11.83;69.85;99386.44;5146294;27;20072;-67
2022/10/03 04:43:29;;;;;;;;;;;;;;;11.62;68.98;99390.34;5147211;27;20141;-67
2022/10/03 04:46:11;;;;;;;5.38;2.05;;;;;;;11.66;69.80;99392.72;5146015;27;19972;-67
2022/10/03 04:48:45;;;;;;;4.68;2.33;;;;;;;11.73;69.93;99404.69;5146208;27;20100;-67
2022/10/03 04:51:35;;;;;;;6.85;2.25;;;;;;;11.73;68.62;99394.09;5146759;27;20100;-67
2022/10/03 04:54:16;;;;;;;4.05;2.17;;;;;;;11.78;69.15;99385.84;5146297;27;20051;-67
2022/10/03 04:56:52;;;;;;;6.15;2.30;;;;;;;11.78;68.84;99391.16;5146406;27;20055;-68
2022/10/03 04:59:41;;;;;;;3.83;2.30;;;;;;;11.57;68.95;99375.56;5146533;27;20051;-67
2022/10/03 05:02:21;;;;;;;5.60;2.70;;;;;;;11.37;68.26;99349.31;5145997;27;20092;-67
2022/10/03 05:05:09;;;;;;;3.40;2.13;;;;;;;11.72;68.45;99418.06;5146153;27;20051;-67
2022/10/03 05:07:50;;;;;;;4.13;2.05;;;;;;;11.73;68.72;99417.97;5146417;27;20054;-67
2022/10/03 05:10:35;;;;;;;9.93;3.38;;;;;;;11.70;67.74;99406.69;5146237;27;20112;-67
2022/10/03 05:13:10;;;;;;;6.57;2.97;;;;;;;11.54;68.57;99386.34;5146002;27;20055;-67
2022/10/03 05:15:44;;;;;;;3.80;2.00;;;;;;;11.78;68.28;99430.97;5145842;27;20043;-68
2022/10/03 05:18:18;;;;;;;4.07;2.17;;;;;;;11.79;68.97;99435.34;5146113;27;20055;-67
2022/10/03 05:20:52;;;;;;;5.88;2.72;;;;;;;11.61;68.16;99424.00;5146281;27;20055;-67
2022/10/03 05:23:34;;;;;;;4.10;2.58;;;;;;;11.61;67.97;99425.81;5148047;27;20104;-67
2022/10/03 05:26:11;;;;;;;4.60;2.28;;;;;;;11.70;68.36;99447.34;5150039;27;20115;-68
2022/10/03 05:28:49;;;;;;;4.43;2.33;;;;;;;11.65;68.29;99441.47;5150090;27;20111;-67
2022/10/03 05:31:29;;;;;;;5.82;2.28;;;;;;;11.63;67.84;99437.19;5150341;27;20080;-67
2022/10/03 05:34:10;;;;;;;5.68;2.50;;;;;;;11.67;67.89;99452.84;5150203;27;20062;-67
2022/10/03 05:36:57;;;;;;;5.30;2.38;;;;;;;11.72;67.88;99461.41;5149912;27;20062;-67
2022/10/03 05:39:41;;;;;;;5.90;2.45;;;;;;;11.69;67.77;99453.63;5150348;27;20059;-67
2022/10/03 05:42:23;;;;;;;5.97;2.72;;;;;;;11.73;68.29;99464.91;5149834;27;20051;-67
2022/10/03 05:45:01;;;;;;;5.22;2.42;;;;;;;11.69;67.81;99456.28;5149981;27;20051;-67
2022/10/03 05:47:44;;;;;;;4.93;2.67;;;;;;;11.79;68.50;99456.59;5149937;27;20054;-67
2022/10/03 05:50:49;;;;;;;6.03;2.45;;;;;;;11.72;67.18;99463.19;5149813;27;20353;-67
2022/10/03 05:53:40;;;;;;;14.52;2.45;;;;;;;11.77;67.67;99469.94;5149817;27;20055;-66
2022/10/03 05:56:16;;;;;;;5.05;2.50;;;;;;;11.79;67.78;99477.84;5149400;27;20047;-66
2022/10/03 05:59:15;;;;;;;7.53;2.70;;;;;;;11.63;66.86;99458.44;5149545;27;20063;-66
2022/10/03 06:02:06;;;;;;;4.97;2.10;;;;;;;11.77;66.45;99490.34;5149282;27;20059;-66
2022/10/03 06:04:58;;;;;;;5.10;2.28;;;;;;;11.78;66.97;99484.94;5149574;27;20256;-66
2022/10/03 06:07:30;;;;;;;4.20;2.00;;;;;;;11.80;67.43;99483.06;5149458;27;20062;-67
2022/10/03 06:10:26;;;;;;;6.63;2.47;;;;;;;11.80;66.31;99487.50;5149455;27;20126;-67
2022/10/03 06:13:10;;;;;;;4.43;2.25;;;;;;;11.81;66.48;99495.38;5149557;27;20055;-66
2022/10/03 06:15:53;;;;;;;3.47;2.05;;;;;;;11.81;66.17;99494.53;5149430;27;20104;-67
2022/10/03 06:18:55;;;;;;;5.32;2.20;;;;;;;11.81;66.26;99494.53;5149281;27;20076;-66
2022/10/03 06:21:52;;;;;;;4.10;2.15;;;;;;;11.83;66.54;99506.78;5145273;27;20063;-66
2022/10/03 06:24:55;;;;;;;4.60;2.50;;;;;;;11.87;66.37;99495.03;5148861;27;20111;-66
2022/10/03 06:28:12;;;;;;;5.57;2.03;;;;;;;11.90;66.55;99494.00;5127951;27;20055;-66
2022/10/03 06:31:05;;;;;;;4.93;2.00;;;;;;;11.92;65.99;99496.56;5149082;27;20055;-67
2022/10/03 06:34:07;;;;;;;5.00;1.98;;;;;;;11.98;65.59;99489.09;5146775;27;20364;-66
2022/10/03 06:36:51;;;;;;;4.57;2.28;;;;;;;12.08;65.04;99484.13;5148593;27;20046;-64
2022/10/03 06:39:51;;;;;;;4.85;2.38;;;;;;;12.18;64.67;99475.53;5148698;27;20051;-65
2022/10/03 06:42:46;;;;;;;6.05;2.00;;;;;;;12.21;64.28;99484.28;5115098;27;20059;-65
2022/10/03 06:46:07;;;;;;;6.50;1.97;;;;;;;12.26;63.80;99482.22;5148797;27;20055;-65
2022/10/03 06:48:57;;;;;;;7.80;1.90;;;;;;;12.14;63.86;99455.38;5100617;27;20051;-65
2022/10/03 06:51:47;;;;;;;3.47;1.85;;;;;;;12.35;63.53;99493.13;5148781;27;20055;-64
2022/10/03 06:54:57;;;;;;;3.55;1.92;;;;;;;12.37;63.37;99496.56;5148723;27;20371;-64
2022/10/03 06:57:48;;;;;;;3.70;1.77;;;;;;;12.47;63.26;99496.84;5148979;27;20054;-65
2022/10/03 07:00:19;;;;;;;5.30;1.90;;;;;;;12.57;63.95;99498.00;5148164;27;20080;-65
2022/10/03 07:03:38;;;;;;;4.72;1.95;;;;;;;12.66;62.35;99499.25;5107392;28;20315;-65
2022/10/03 07:06:39;;;;;;;4.20;1.73;;;;;;;12.67;61.64;99495.63;5107319;28;20055;-66
2022/10/03 07:09:36;;;;;;;4.47;1.67;;;;;;;12.87;61.51;99489.94;5107289;28;20064;-66
2022/10/03 07:12:42;;;;;;;5.20;1.92;;;;;;;12.94;61.03;99507.22;5106905;28;20098;-66
2022/10/03 07:15:48;;;;;;;6.43;1.80;;;;;;;12.94;60.78;99496.59;5106944;28;20311;-65
2022/10/03 07:18:54;;;;;;;4.65;1.80;;;;;;;12.94;60.99;99491.25;5105937;28;20064;-66
2022/10/03 07:22:06;;;;;;;5.10;2.25;;;;;;;12.98;60.97;99497.25;5107142;28;20242;-67
2022/10/03 07:25:18;;;;;;;7.25;2.25;;;;;;;12.94;60.51;99499.25;5107012;28;20056;-66
2022/10/03 07:28:01;;;;;;;3.95;1.98;;;;;;;12.88;59.91;99499.63;5025283;28;20066;-67
2022/10/03 07:30:33;;;;;;;6.32;2.83;;;;;;;12.97;61.28;99514.16;5097378;28;20052;-66
2022/10/03 07:33:35;;;;;;;6.00;2.47;;;;;;;13.01;60.36;99508.56;5106671;28;20105;-66
2022/10/03 07:39:45;;;;;;;5.32;2.55;;;;;;;12.96;60.17;99517.78;5106682;28;20094;-65
2022/10/03 07:42:40;;;;;;;4.60;2.35;;;;;;;12.96;59.31;99508.00;5106507;28;20109;-66
2022/10/03 07:45:29;;;;;;;4.10;1.50;;;;;;;12.94;60.15;99496.59;5064808;28;20117;-66
2022/10/03 07:48:13;;;;;;;4.88;2.10;;;;;;;12.97;59.39;99515.03;5106442;28;20102;-65
2022/10/03 07:51:13;;;;;;;3.75;1.70;;;;;;;12.89;58.00;99519.09;5106127;28;20052;-65
2022/10/03 07:54:11;;;;;;;7.20;1.90;;;;;;;12.75;58.87;99493.34;5094517;28;20052;-66
2022/10/03 07:56:59;;;;;;;4.00;1.73;;;;;;;12.97;59.65;99523.00;5106245;28;20243;-65
2022/10/03 07:59:59;;;;;;;5.13;1.52;;;;;;;13.01;58.58;99524.50;5106003;28;20097;-66
2022/10/03 08:02:46;;;;;;;4.28;1.50;;;;;;;13.09;58.32;99535.53;5141981;27;20123;-65
2022/10/03 08:05:33;;;;;;;5.03;1.80;;;;;;;13.15;58.21;99524.50;5147261;27;20055;-66
2022/10/03 08:08:23;;;;;;;2.90;1.88;;;;;;;13.22;58.40;99524.13;5146817;27;20237;-66
2022/10/03 08:11:27;;;;;;;4.70;1.50;;;;;;;13.24;57.87;99522.22;5145067;27;20062;-66
2022/10/03 08:14:04;;;;;;;5.10;2.20;;;;;;;13.25;58.13;99542.56;5136533;27;20112;-66
2022/10/03 08:17:02;;;;;;;3.67;1.92;;;;;;;13.24;57.59;99530.19;5146958;27;20095;-66
2022/10/03 08:19:58;;;;;;;3.05;1.40;;;;;;;13.32;57.25;99534.09;5146757;27;20375;-65
2022/10/03 08:22:40;;;;;;;3.42;1.60;;;;;;;13.15;57.83;99487.25;5147023;27;20055;-65
2022/10/03 08:25:25;;;;;;;5.38;1.50;;;;;;;13.29;56.18;99514.78;5147091;27;20104;-65
2022/10/03 08:28:17;;;;;;;5.13;2.08;;;;;;;13.33;57.06;99517.16;5146431;27;20055;-66
2022/10/03 08:31:10;;;;;;;3.38;1.58;;;;;;;13.01;57.39;99460.66;5146553;27;20131;-66
2022/10/03 08:34:05;;;;;;;3.22;1.50;;;;;;;13.37;56.88;99529.31;5146546;27;20100;-65
2022/10/03 08:37:01;;;;;;;3.75;1.65;;;;;;;13.44;56.75;99543.13;5144438;27;20307;-66
2022/10/03 08:39:40;;;;;;;;;;;;;;;13.40;56.22;99541.59;5147167;27;20051;-65
2022/10/03 08:42:28;;;;;;;2.90;1.63;;;;;;;13.55;56.12;99529.13;5146583;27;19915;-65
2022/10/03 08:45:19;;;;;;;6.13;2.25;;;;;;;13.41;54.72;99514.88;5146292;27;20059;-66
2022/10/03 08:48:41;;;;;;;6.18;1.50;;;;;;;13.69;54.86;99550.41;5146806;27;20072;-65
2022/10/03 08:51:50;;;;;;;2.88;1.40;;;;;;;13.73;53.50;99536.78;5146147;27;20111;-65
2022/10/03 08:54:44;;;;;;;4.47;2.15;;;;;;;13.59;54.40;99507.53;5146484;27;20051;-65
2022/10/03 08:57:26;;;;;;;2.97;1.60;;;;;;;13.81;54.18;99533.63;5146221;27;20187;-65
2022/10/03 09:00:16;;;;;;;4.07;1.83;;;;;;;13.71;53.89;99506.72;5146251;27;20055;-66
2022/10/03 09:03:19;;;;;;;4.40;1.50;;;;;;;13.07;52.99;99419.50;5145898;27;20383;-66
2022/10/03 09:06:41;;;;;;;6.05;2.45;;;;;;;13.93;53.56;99542.59;5146159;27;20108;-66
2022/10/03 09:10:06;;;;;;;6.53;3.80;;;;;;;14.01;53.14;99534.97;5087899;27;20295;-65
2022/10/03 09:13:08;;;;;;;7.10;3.40;;;;;;;14.16;53.91;99528.59;5063375;28;20057;-66
2022/10/03 09:16:02;;;;;;;5.05;2.53;;;;;;;14.31;53.58;99537.38;5063244;28;20061;-65
2022/10/03 09:18:56;;;;;;;5.72;2.25;;;;;;;14.34;51.44;99540.69;5146393;27;20063;-65
2022/10/03 09:22:04;;;;;;;8.30;2.95;;;;;;;14.15;52.04;99508.25;5115661;27;20312;-66
2022/10/03 09:24:55;;;;;;;4.43;1.90;;;;;;;14.50;52.30;99521.00;5146119;27;20104;-65
2022/10/03 09:27:52;;;;;;;2.92;2.03;;;;;;;14.53;51.45;99510.97;5143244;28;20059;-66
2022/10/03 09:30:28;;;;;;;6.53;1.50;;;;;;;14.56;53.42;99521.41;5145905;27;20360;-65
2022/10/03 09:33:38;;;;;;;3.17;1.58;;;;;;;14.66;51.24;99524.38;5146189;27;20196;-65
2022/10/03 09:36:44;;;;;;;5.03;2.00;;;;;;;14.76;52.03;99522.78;5105116;27;20144;-66
2022/10/03 09:39:46;;;;;;;3.65;1.75;;;;;;;14.77;51.77;99521.81;5115136;27;20051;-65
2022/10/03 09:42:55;;;;;;;2.42;1.35;;;;;;;14.88;50.66;99516.56;5145807;27;20058;-66
2022/10/03 09:46:03;;;;;;;7.28;2.67;;;;;;;15.02;50.97;99521.78;5145495;27;20116;-65
2022/10/03 09:48:45;;;;;;;3.80;2.40;;;;;;;15.13;51.30;99514.84;5145841;27;20063;-65
2022/10/03 09:51:36;;;;;;;3.20;1.50;;;;;;;15.18;48.76;99497.53;5145515;27;20055;-65
2022/10/03 09:55:00;;;;;;;4.63;2.00;;;;;;;15.41;49.51;99506.56;5135701;27;20062;-65
2022/10/03 09:57:58;;;;;;;3.65;1.77;;;;;;;15.51;49.01;99493.38;5146014;27;20108;-65
2022/10/03 10:00:31;;;;;;;2.83;1.30;;;;;;;15.57;50.07;99500.94;5145831;28;20043;-66
2022/10/03 10:03:49;;;;;;;3.80;1.73;;;;;;;15.70;48.64;99504.44;5145357;28;20100;-65
2022/10/03 10:06:37;;;;;;;2.97;1.60;;;;;;;15.85;48.17;99521.16;5145468;27;20059;-65
2022/10/03 10:09:39;;;;;;;5.90;1.88;;;;;;;15.94;48.18;99501.78;5146903;27;20100;-65
2022/10/03 10:12:33;;;;;;;4.32;1.95;;;;;;;15.70;48.19;99457.22;5149470;27;20055;-66
2022/10/03 10:15:46;;;;;;;3.38;1.50;;;;;;;16.15;47.51;99505.50;5144384;27;20047;-66
2022/10/03 10:18:41;;;;;;;3.13;1.67;;;;;;;16.28;46.97;99492.06;5147841;27;20063;-66
2022/10/03 10:21:47;;;;;;;5.20;2.20;;;;;;;16.10;45.82;99469.38;5148914;27;20051;-66
2022/10/03 10:24:52;;;;;;;5.78;2.22;;;;;;;16.31;46.55;99491.81;5130417;27;20051;-65
2022/10/03 10:27:53;;;;;;;4.85;2.72;;;;;;;16.38;45.89;99487.69;5149022;27;20051;-66
2022/10/03 10:30:46;;;;;;;3.67;2.00;;;;;;;16.35;46.39;99493.28;5148302;27;20128;-65
2022/10/03 10:33:51;;;;;;;3.30;1.85;;;;;;;16.46;46.13;99482.63;5148938;27;20054;-65
2022/10/03 10:36:55;;;;;;;3.03;1.85;;;;;;;16.47;45.66;99487.00;5148664;27;20327;-65
2022/10/03 10:39:57;;;;;;;5.60;2.85;;;;;;;16.42;46.11;99491.00;5148122;27;20047;-65
2022/10/03 10:43:05;;;;;;;4.38;1.90;;;;;;;16.36;45.32;99490.50;5148655;27;20120;-66
2022/10/03 10:45:44;;;;;;;4.18;1.80;;;;;;;16.08;44.86;99464.16;5148658;27;20096;-65
2022/10/03 10:48:48;;;;;;;2.53;1.58;;;;;;;16.09;46.12;99486.41;5148761;27;20115;-65
2022/10/03 10:51:48;;;;;;;3.88;1.80;;;;;;;16.09;46.55;99489.06;5148402;27;20138;-65
2022/10/03 10:54:50;;;;;;;4.80;2.00;;;;;;;15.97;45.17;99490.84;5148518;27;20055;-64
2022/10/03 10:57:25;;;;;;;4.05;2.35;;;;;;;15.95;46.86;99490.13;5122417;27;20104;-65
2022/10/03 11:00:23;;;;;;;3.95;2.35;;;;;;;15.90;45.83;99487.78;5148336;27;20063;-65
2022/10/03 11:03:30;;;;;;;5.20;2.42;;;;;;;15.86;46.52;99496.16;5142347;27;20104;-65
2022/10/03 11:06:31;;;;;;;3.72;1.95;;;;;;;15.73;46.48;99508.72;5148404;27;20306;-65
2022/10/03 11:09:34;;;;;;;2.90;1.73;;;;;;;15.71;46.91;99500.81;5148480;27;20054;-66
2022/10/03 11:12:38;;;;;;;4.00;1.73;;;;;;;15.73;47.14;99500.69;5147931;27;20055;-65
2022/10/03 11:15:42;;;;;;;2.95;2.10;;;;;;;15.85;47.04;99495.28;5148188;27;20055;-65
2022/10/03 11:18:39;;;;;;;4.07;2.00;;;;;;;15.96;47.18;99500.69;5147969;27;20092;-66
2022/10/03 11:21:42;;;;;;;4.03;2.25;;;;;;;15.95;46.29;99485.63;5148061;27;20115;-65
2022/10/03 11:25:06;;;;;;;5.22;2.33;;;;;;;16.02;46.34;99555.50;5147544;27;20104;-65
2022/10/03 11:28:06;;;;;;;3.10;2.00;;;;;;;16.05;46.50;99491.13;5147594;27;20107;-65
2022/10/03 11:31:36;;;;;;;3.63;1.65;;;;;;;15.94;45.70;99457.19;5147742;27;20379;-65
2022/10/03 11:34:50;;;;;;;3.88;2.00;;;;;;;16.20;45.99;99500.66;5064817;28;20283;-66
2022/10/03 11:37:32;;;;;;;3.05;2.15;;;;;;;16.21;45.96;99489.00;5111029;27;20051;-67
2022/10/03 11:40:16;;;;;;;4.32;2.30;;;;;;;16.20;46.34;99489.97;5147538;27;20051;-67
2022/10/03 11:42:55;;;;;;;5.10;2.27;;;;;;;16.17;47.52;99487.53;5147539;27;20091;-66
2022/10/03 11:45:31;;;;;;;4.28;2.15;;;;;;;16.23;49.12;99497.75;5147709;27;20310;-66
2022/10/03 11:48:19;;;;;;;3.83;2.42;;;;;;;16.13;48.38;99491.41;5147899;27;20115;-65
2022/10/03 11:50:51;;;;;;;5.25;2.83;;;;;;;16.13;49.10;99503.91;5147212;27;20253;-66
2022/10/03 11:53:24;;;;;;;4.00;2.45;;;;;;;16.08;48.91;99503.41;5147344;27;20058;-65
2022/10/03 11:56:08;;;;;;;6.25;2.20;;;;;;;16.00;49.14;99502.16;5147006;27;20081;-65
2022/10/03 11:58:58;;;;;;;5.43;1.80;;;;;;;15.93;48.73;99524.97;5147086;27;20359;-65
2022/10/03 12:01:39;;;;;;;3.25;1.77;;;;;;;15.76;48.56;99512.00;5146921;27;20051;-65
2022/10/03 12:04:14;;;;;;;2.95;1.98;;;;;;;15.93;49.89;99518.78;5147080;27;20319;-65
2022/10/03 12:10:03;;;;;;;3.35;1.65;;;;;;;15.84;49.44;99503.44;5147333;27;20351;-66
2022/10/03 12:12:42;;;;;;;2.40;1.58;;;;;;;15.79;47.98;99498.44;5145732;27;20047;-66
2022/10/03 12:15:24;;;;;;;2.60;1.45;;;;;;;15.89;48.38;99495.91;5146657;27;20096;-65
2022/10/03 12:18:00;;;;;;;3.55;1.45;;;;;;;16.01;49.11;99498.53;5147089;27;20051;-67
2022/10/03 12:20:34;;;;;;;2.78;1.42;;;;;;;15.90;49.39;99463.72;5147085;27;20115;-66
2022/10/03 12:23:16;;;;;;;3.07;1.43;;;;;;;16.11;49.39;99508.53;5147123;27;20088;-66
2022/10/03 12:25:45;;;;;;;3.33;1.67;;;;;;;16.08;50.60;99528.31;5146957;27;20452;-66
2022/10/03 12:28:21;;;;;;;3.22;1.30;;;;;;;15.81;48.60;99491.16;5146547;27;20047;-66
2022/10/03 12:30:54;;;;;;;5.05;1.30;;;;;;;16.03;49.83;99501.09;5146969;27;20096;-67
2022/10/03 12:33:35;;;;;;;2.10;1.38;;;;;;;16.08;48.34;99511.44;5146625;27;20265;-66
2022/10/03 12:36:10;;;;;;;3.72;1.55;;;;;;;16.15;48.40;99494.81;5146615;27;20112;-66
2022/10/03 12:38:55;;;;;;;2.85;1.40;;;;;;;16.22;48.01;99513.91;5147119;27;20051;-66
2022/10/03 12:41:35;;;;;;;3.25;1.60;;;;;;;16.23;48.09;99503.09;5146661;27;20111;-66
2022/10/03 12:44:19;;;;;;;5.28;2.28;;;;;;;16.32;47.51;99505.06;5146483;27;20063;-67
2022/10/03 12:46:57;;;;;;;3.80;2.30;;;;;;;16.40;48.69;99499.13;5146505;27;20063;-66
2022/10/03 12:49:43;;;;;;;4.15;1.90;;;;;;;16.42;47.03;99515.91;5146844;27;20108;-67
2022/10/03 12:52:20;;;;;;;3.67;2.20;;;;;;;16.41;46.25;99514.22;5146304;27;20093;-66
2022/10/03 12:54:55;;;;;;;3.35;2.03;;;;;;;16.40;46.94;99543.75;5146555;27;20055;-67
2022/10/03 12:57:39;;;;;;;;;;;;;;;16.35;46.48;99501.31;5146689;27;20051;-67
2022/10/03 13:00:17;;;;;;;3.15;2.05;;;;;;;16.28;46.77;99478.69;5146158;27;19923;-66
2022/10/03 13:02:57;;;;;;;2.92;1.80;;;;;;;16.52;47.59;99508.88;5146017;27;20092;-67
2022/10/03 13:05:33;;;;;;;3.22;2.10;;;;;;;16.54;47.52;99500.75;5147235;28;20039;-68
2022/10/03 13:08:05;;;;;;;4.35;2.42;;;;;;;16.66;48.70;99500.69;5146454;27;20176;-67
2022/10/03 13:10:41;;;;;;;3.45;1.70;;;;;;;16.72;46.91;99504.69;5146747;27;20180;-67
2022/10/03 13:13:23;;;;;;;2.97;1.75;;;;;;;16.72;45.73;99517.22;5146430;27;20100;-67
2022/10/03 13:16:13;;;;;;;4.13;1.73;;;;;;;16.67;45.34;99504.22;5146453;28;20077;-67
2022/10/03 13:18:52;;;;;;;3.03;1.90;;;;;;;16.71;45.62;99500.31;5144576;27;20160;-67
2022/10/03 13:21:26;;;;;;;3.72;1.90;;;;;;;16.76;46.99;99516.00;5146237;27;20065;-67
2022/10/03 13:23:57;;;;;;;3.45;2.10;;;;;;;16.77;46.68;99507.88;5146211;27;20096;-67
2022/10/03 13:28:58;;;;;;;2.85;1.77;;;;;;;16.67;43.74;99507.72;5124505;27;20606;-66